Time;durP1;ratioP1;P1;durP2;ratioP2;P2;SDS_P1;SDS_P2;PMS_P1;PMS_P2;Temp;Humidity;BMP_temperature;BMP_pressure;BME280_temperature;BME280_humidity;BME280_pressure;Samples;Min_cycle;Max_cycle;Signal;HPM_P1;HPM_P2
2022/01/19 00:01:22;;;;;;;12.77;6.43;;;2.70;99.90;;;;;;4954532;29;20224;-78
2022/01/19 00:03:47;;;;;;;7.83;6.60;;;2.70;99.90;;;;;;4955003;28;20416;-76
2022/01/19 00:06:14;;;;;;;9.73;7.50;;;2.70;99.90;;;;;;4955378;29;20420;-78
2022/01/19 00:08:40;;;;;;;12.95;8.30;;;2.70;99.90;;;;;;4954375;29;20562;-77
2022/01/19 00:11:06;;;;;;;9.50;6.70;;;2.70;99.90;;;;;;4954927;29;20263;-78
2022/01/19 00:13:31;;;;;;;10.10;8.00;;;2.70;99.90;;;;;;4953931;29;20189;-76
2022/01/19 00:15:57;;;;;;;12.47;8.73;;;2.70;99.90;;;;;;4954927;29;20193;-76
2022/01/19 00:18:24;;;;;;;15.80;9.50;;;2.70;99.90;;;;;;4953564;29;20601;-78
2022/01/19 00:20:53;;;;;;;13.30;7.60;;;2.70;99.90;;;;;;4955247;28;20184;-76
2022/01/19 00:23:20;;;;;;;13.60;8.68;;;2.60;99.90;;;;;;4954916;28;20258;-78
2022/01/19 00:25:51;;;;;;;12.50;9.05;;;2.70;99.90;;;;;;4954756;28;20208;-76
2022/01/19 00:28:17;;;;;;;13.75;9.48;;;2.70;99.90;;;;;;4958070;28;20232;-77
2022/01/19 00:30:43;;;;;;;21.70;11.35;;;2.60;99.90;;;;;;4957948;28;20210;-78
2022/01/19 00:33:09;;;;;;;18.52;11.15;;;2.60;99.90;;;;;;4958199;28;20605;-78
2022/01/19 00:35:36;;;;;;;14.50;9.83;;;2.60;99.90;;;;;;4958258;29;20170;-76
2022/01/19 00:38:03;;;;;;;15.15;9.05;;;2.60;99.90;;;;;;4958308;28;20417;-76
2022/01/19 00:40:29;;;;;;;16.65;10.45;;;2.60;99.90;;;;;;4958073;28;20185;-77
2022/01/19 00:42:55;;;;;;;15.50;10.73;;;2.60;99.90;;;;;;4957655;29;20672;-77
2022/01/19 00:45:21;;;;;;;18.20;9.70;;;2.60;99.90;;;;;;4957985;28;20248;-77
2022/01/19 00:47:47;;;;;;;13.50;9.25;;;2.60;99.90;;;;;;4958090;28;20180;-76
2022/01/19 00:50:16;;;;;;;12.93;9.05;;;2.60;99.90;;;;;;4957632;29;20205;-77
2022/01/19 00:52:42;;;;;;;15.02;9.00;;;2.50;99.90;;;;;;4957470;28;20192;-77
2022/01/19 00:55:11;;;;;;;14.00;9.23;;;2.40;99.90;;;;;;4957844;28;20183;-76
2022/01/19 00:57:37;;;;;;;13.27;9.05;;;2.40;99.90;;;;;;4957862;28;20415;-76
2022/01/19 01:00:05;;;;;;;12.45;9.30;;;2.30;99.90;;;;;;4957807;28;20191;-77
2022/01/19 01:02:31;;;;;;;11.80;9.55;;;2.30;99.90;;;;;;4957312;28;20212;-77
2022/01/19 01:04:56;;;;;;;16.23;10.85;;;2.30;99.90;;;;;;4957525;28;20225;-76
2022/01/19 01:07:22;;;;;;;11.00;8.27;;;2.30;99.90;;;;;;4957807;28;20177;-77
2022/01/19 01:09:48;;;;;;;15.83;10.30;;;2.20;99.90;;;;;;4957756;29;20178;-76
2022/01/19 01:12:21;;;;;;;21.17;10.93;;;2.20;99.90;;;;;;4955923;29;20445;-76
2022/01/19 01:20:16;;;;;;;14.57;10.93;;;2.10;99.90;;;;;;4957691;29;20545;-77
2022/01/19 01:22:43;;;;;;;13.60;12.03;;;2.20;99.90;;;;;;4956910;28;20208;-77
2022/01/19 01:25:09;;;;;;;14.85;11.07;;;2.10;99.90;;;;;;4956062;29;20221;-77
2022/01/19 01:27:35;;;;;;;15.55;10.60;;;2.20;99.90;;;;;;4957136;28;20567;-77
2022/01/19 01:30:02;;;;;;;15.38;10.63;;;2.20;99.90;;;;;;4957175;28;20563;-77
2022/01/19 01:32:27;;;;;;;13.23;9.68;;;2.30;99.90;;;;;;4956815;28;20614;-77
2022/01/19 01:34:53;;;;;;;16.57;11.20;;;2.40;99.90;;;;;;4956838;29;20190;-76
2022/01/19 01:37:19;;;;;;;15.03;10.17;;;2.40;99.90;;;;;;4956691;28;20548;-76
2022/01/19 01:39:45;;;;;;;14.70;10.63;;;2.50;99.90;;;;;;4956930;29;20197;-77
2022/01/19 01:42:13;;;;;;;11.70;9.20;;;2.60;99.90;;;;;;4955308;29;20212;-77
2022/01/19 01:44:42;;;;;;;15.32;9.70;;;2.60;99.90;;;;;;4956844;28;20208;-78
2022/01/19 01:47:08;;;;;;;13.43;10.32;;;2.70;99.90;;;;;;4957075;28;20186;-78
2022/01/19 01:54:53;;;;;;;11.75;9.73;;;2.80;99.90;;;;;;4957115;29;20198;-77
2022/01/19 01:57:19;;;;;;;16.38;10.77;;;2.80;99.90;;;;;;4956752;29;20554;-75
2022/01/19 01:59:45;;;;;;;19.23;12.25;;;2.80;99.90;;;;;;4956614;28;20190;-77
2022/01/19 02:02:11;;;;;;;17.10;12.20;;;2.70;99.90;;;;;;4956197;29;20210;-79
2022/01/19 02:04:40;;;;;;;18.33;12.67;;;2.80;99.90;;;;;;4956485;29;20612;-77
2022/01/19 02:09:56;;;;;;;21.23;14.18;;;2.70;99.90;;;;;;4956914;29;20188;-76
2022/01/19 02:23:24;;;;;;;18.27;15.10;;;2.40;99.90;;;;;;4956431;29;20196;-77
2022/01/19 02:25:52;;;;;;;19.42;15.30;;;2.50;99.90;;;;;;4956193;28;20243;-79
2022/01/19 02:42:33;;;;;;;17.23;13.90;;;2.70;99.90;;;;;;4955869;29;20253;-78
2022/01/19 02:49:53;;;;;;;22.00;14.30;;;2.60;99.90;;;;;;4955235;29;20213;-79
2022/01/19 02:52:21;;;;;;;21.50;15.10;;;2.60;99.90;;;;;;4955395;28;20239;-77
2022/01/19 02:54:48;;;;;;;21.98;15.40;;;2.60;99.90;;;;;;4954905;29;20182;-77
2022/01/19 02:57:15;;;;;;;24.70;14.55;;;2.50;99.90;;;;;;4955763;28;20177;-78
2022/01/19 03:10:23;;;;;;;23.17;15.50;;;2.20;99.90;;;;;;4955975;29;20625;-77
2022/01/19 03:12:49;;;;;;;21.57;13.37;;;2.20;99.90;;;;;;4955113;29;20299;-79
2022/01/19 03:15:15;;;;;;;19.03;13.17;;;2.10;99.90;;;;;;4955448;29;20186;-78
2022/01/19 03:17:41;;;;;;;19.88;13.73;;;2.10;99.90;;;;;;4955329;28;20583;-77
2022/01/19 03:20:09;;;;;;;17.20;12.57;;;2.00;99.90;;;;;;4955441;29;20269;-79
2022/01/19 03:22:40;;;;;;;17.55;12.93;;;2.00;99.90;;;;;;4954918;28;20662;-78
2022/01/19 03:25:12;;;;;;;22.35;13.95;;;2.00;99.90;;;;;;4955281;28;20205;-77
2022/01/19 03:27:47;;;;;;;18.55;13.30;;;1.90;99.90;;;;;;4955174;28;20207;-78
2022/01/19 03:30:15;;;;;;;16.58;13.30;;;2.00;99.90;;;;;;4955288;28;20172;-77
2022/01/19 03:32:40;;;;;;;21.83;14.55;;;1.90;99.90;;;;;;4954902;28;20622;-78
2022/01/19 03:35:06;;;;;;;17.90;13.60;;;2.00;99.90;;;;;;4953848;29;20186;-79
2022/01/19 03:37:32;;;;;;;18.05;13.38;;;2.00;99.90;;;;;;4955158;28;20213;-78
2022/01/19 03:39:58;;;;;;;18.60;13.40;;;1.90;99.90;;;;;;4954890;29;20684;-79
2022/01/19 03:42:23;;;;;;;21.70;13.87;;;2.00;99.90;;;;;;4954687;28;20286;-78
2022/01/19 03:44:49;;;;;;;17.07;13.13;;;1.90;99.90;;;;;;4955074;29;20205;-79
2022/01/19 03:47:17;;;;;;;19.77;13.00;;;1.90;99.90;;;;;;4955027;29;20227;-78
2022/01/19 03:49:42;;;;;;;17.50;12.35;;;2.00;99.90;;;;;;4954871;28;20186;-78
2022/01/19 03:52:08;;;;;;;16.60;12.60;;;2.00;99.90;;;;;;4937396;29;20204;-78
2022/01/19 03:54:42;;;;;;;13.57;11.47;;;2.00;99.90;;;;;;4955301;29;20563;-78
2022/01/19 03:57:08;;;;;;;16.17;12.43;;;2.00;99.90;;;;;;4955207;28;20564;-77
2022/01/19 03:59:34;;;;;;;15.50;12.63;;;2.00;99.90;;;;;;4956013;28;20174;-77
2022/01/19 04:02:01;;;;;;;18.13;12.60;;;2.00;99.90;;;;;;4958316;29;20440;-79
2022/01/19 04:07:01;;;;;;;17.92;12.35;;;2.00;99.90;;;;;;4958920;28;20242;-79
2022/01/19 04:09:27;;;;;;;14.45;11.70;;;2.10;99.90;;;;;;4958700;28;20173;-78
2022/01/19 04:11:54;;;;;;;15.50;11.82;;;2.10;99.90;;;;;;4958243;28;20572;-80
2022/01/19 04:14:24;;;;;;;13.57;11.60;;;2.10;99.90;;;;;;4957185;29;20658;-78
2022/01/19 04:16:53;;;;;;;15.27;11.40;;;2.20;99.90;;;;;;4958791;28;20185;-77
2022/01/19 04:21:44;;;;;;;13.13;10.73;;;2.30;99.90;;;;;;4958116;28;20209;-78
2022/01/19 04:24:10;;;;;;;15.30;11.50;;;2.30;99.90;;;;;;4958444;29;20221;-77
2022/01/19 04:26:36;;;;;;;13.47;11.37;;;2.50;99.90;;;;;;4958471;29;20716;-77
2022/01/19 04:29:02;;;;;;;12.83;11.10;;;2.60;99.90;;;;;;4958833;28;20220;-79
2022/01/19 04:31:28;;;;;;;13.52;10.82;;;2.60;99.90;;;;;;4958406;28;20211;-76
2022/01/19 04:33:58;;;;;;;13.30;10.57;;;2.70;99.90;;;;;;4958148;29;20185;-76
2022/01/19 04:36:31;;;;;;;12.95;11.50;;;2.80;99.90;;;;;;4958091;28;20181;-77
2022/01/19 05:03:49;;;;;;;9.55;7.97;;;3.30;99.90;;;;;;4957991;29;20665;-76
2022/01/19 05:06:17;;;;;;;7.78;6.65;;;3.40;99.90;;;;;;4957993;28;20181;-75
2022/01/19 05:09:06;;;;;;;8.10;6.93;;;3.40;99.90;;;;;;4957842;28;20559;-76
2022/01/19 05:14:16;;;;;;;8.27;6.18;;;3.40;99.90;;;;;;4957636;29;20196;-77
2022/01/19 05:16:42;;;;;;;7.43;5.97;;;3.40;99.90;;;;;;4957565;29;20185;-75
2022/01/19 05:19:07;;;;;;;6.13;5.53;;;3.40;99.90;;;;;;4957689;29;20182;-78
2022/01/19 05:21:33;;;;;;;6.33;5.67;;;3.40;99.90;;;;;;4957052;28;20673;-78
2022/01/19 05:24:04;;;;;;;6.17;5.50;;;3.50;99.90;;;;;;4957355;29;20440;-77
2022/01/19 05:26:35;;;;;;;7.82;5.70;;;3.50;99.90;;;;;;4957049;29;20685;-76
2022/01/19 05:29:00;;;;;;;5.90;5.30;;;3.50;99.90;;;;;;4957282;28;20185;-77
2022/01/19 05:31:26;;;;;;;5.90;5.40;;;3.50;99.90;;;;;;4956818;29;20197;-78
2022/01/19 05:33:53;;;;;;;6.43;5.40;;;3.60;99.90;;;;;;4957352;28;20518;-77
2022/01/19 05:36:19;;;;;;;6.28;5.53;;;3.50;99.90;;;;;;4962841;28;20192;-78
2022/01/19 05:38:44;;;;;;;7.80;5.10;;;3.60;99.90;;;;;;4975834;28;20193;-77
2022/01/19 05:41:10;;;;;;;8.30;6.20;;;3.60;99.90;;;;;;4976011;28;20196;-77
2022/01/19 05:43:35;;;;;;;6.50;5.70;;;3.60;99.90;;;;;;4976427;28;20184;-77
2022/01/19 05:46:01;;;;;;;6.20;5.70;;;3.60;99.90;;;;;;4976215;28;20284;-78
2022/01/19 05:48:26;;;;;;;6.20;5.60;;;3.50;99.90;;;;;;4976568;28;20180;-78
2022/01/19 05:50:52;;;;;;;6.10;5.50;;;3.50;99.90;;;;;;4976043;28;20181;-78
2022/01/19 05:53:18;;;;;;;5.50;5.00;;;3.50;99.90;;;;;;4976556;28;20227;-76
2022/01/19 05:55:44;;;;;;;6.40;5.67;;;3.60;99.90;;;;;;4977104;28;20928;-78
2022/01/19 05:58:10;;;;;;;6.18;5.55;;;3.60;99.90;;;;;;4976693;28;20559;-76
2022/01/19 06:00:36;;;;;;;5.80;5.20;;;3.60;99.90;;;;;;4974840;28;20279;-79
2022/01/19 06:03:02;;;;;;;6.10;5.37;;;3.60;99.90;;;;;;4975686;28;20459;-78
2022/01/19 06:05:27;;;;;;;9.73;6.33;;;3.90;99.90;;;;;;4976011;28;20232;-77
2022/01/19 06:08:11;;;;;;;6.27;5.67;;;3.70;99.90;;;;;;4974690;28;20432;-78
2022/01/19 06:10:42;;;;;;;7.40;6.00;;;3.70;99.90;;;;;;4975933;28;20218;-77
2022/01/19 06:13:08;;;;;;;6.93;6.32;;;3.70;99.90;;;;;;4975657;28;20267;-77
2022/01/19 06:15:34;;;;;;;7.75;6.65;;;3.70;99.90;;;;;;4975807;28;20187;-78
2022/01/19 06:17:59;;;;;;;6.20;5.60;;;3.70;99.90;;;;;;4975790;28;20657;-76
2022/01/19 06:20:25;;;;;;;9.97;6.00;;;3.70;99.90;;;;;;4976292;28;20181;-78
2022/01/19 06:22:51;;;;;;;6.77;6.17;;;3.70;99.90;;;;;;4973265;28;20212;-78
2022/01/19 06:25:17;;;;;;;6.63;6.03;;;3.70;99.90;;;;;;4975276;28;20555;-79
2022/01/19 06:27:42;;;;;;;6.07;5.57;;;3.70;99.90;;;;;;4975426;28;20336;-78
2022/01/19 06:30:08;;;;;;;6.30;5.70;;;3.70;99.90;;;;;;4975428;28;20228;-78
2022/01/19 06:32:34;;;;;;;8.38;6.65;;;3.60;99.90;;;;;;4975146;28;20696;-78
2022/01/19 06:34:59;;;;;;;7.20;5.70;;;3.70;99.90;;;;;;4975351;28;20181;-78
2022/01/19 06:37:25;;;;;;;6.47;5.60;;;3.70;99.90;;;;;;4975223;28;20223;-78
2022/01/19 06:39:52;;;;;;;9.90;7.23;;;3.60;99.90;;;;;;4975240;28;20267;-76
2022/01/19 06:42:17;;;;;;;8.25;7.45;;;3.60;99.90;;;;;;4974851;28;20289;-79
2022/01/19 06:44:43;;;;;;;7.17;6.50;;;3.60;99.90;;;;;;4975168;28;20208;-78
2022/01/19 06:47:09;;;;;;;7.33;6.63;;;3.70;99.90;;;;;;4974962;28;20416;-77
2022/01/19 06:49:34;;;;;;;7.40;6.70;;;3.80;99.90;;;;;;4974991;28;20213;-77
2022/01/19 06:52:01;;;;;;;8.73;7.93;;;3.80;99.90;;;;;;4974602;28;20204;-78
2022/01/19 06:54:27;;;;;;;10.68;7.07;;;3.80;99.90;;;;;;4974981;28;20549;-78
2022/01/19 06:56:53;;;;;;;8.83;8.00;;;3.80;99.90;;;;;;4975309;28;20181;-77
2022/01/19 06:59:18;;;;;;;8.80;7.30;;;3.70;99.90;;;;;;4975291;28;20428;-76
2022/01/19 07:01:44;;;;;;;9.67;8.60;;;3.60;99.90;;;;;;4974632;28;20244;-78
2022/01/19 07:04:15;;;;;;;10.63;7.83;;;3.60;99.90;;;;;;4974733;28;20248;-77
2022/01/19 07:06:41;;;;;;;9.63;7.95;;;3.60;99.90;;;;;;4974864;28;20176;-77
2022/01/19 07:09:07;;;;;;;9.95;8.93;;;3.60;99.90;;;;;;4974792;28;20592;-77
2022/01/19 07:11:35;;;;;;;11.03;8.33;;;3.60;99.90;;;;;;4974187;28;20197;-77
2022/01/19 07:14:01;;;;;;;9.18;8.27;;;3.60;99.90;;;;;;4974917;28;20419;-79
2022/01/19 07:16:26;;;;;;;10.37;8.50;;;3.50;99.90;;;;;;4974824;28;20664;-77
2022/01/19 07:18:52;;;;;;;8.93;8.03;;;3.60;99.90;;;;;;4974699;28;20181;-76
2022/01/19 07:21:17;;;;;;;9.07;8.17;;;3.60;99.90;;;;;;4972943;28;20215;-77
2022/01/19 07:23:43;;;;;;;11.00;8.40;;;3.60;99.90;;;;;;4974485;28;20215;-77
2022/01/19 07:26:09;;;;;;;11.80;8.57;;;3.70;99.90;;;;;;4974366;28;20205;-79
2022/01/19 07:28:34;;;;;;;8.63;7.67;;;3.70;99.90;;;;;;4974706;28;20688;-78
2022/01/19 07:31:00;;;;;;;9.83;8.47;;;3.60;99.90;;;;;;4974079;28;20190;-79
2022/01/19 07:33:25;;;;;;;9.50;8.00;;;3.70;99.90;;;;;;4974456;28;20181;-79
2022/01/19 07:35:51;;;;;;;9.90;8.90;;;3.70;99.90;;;;;;4972907;28;20189;-79
2022/01/19 07:38:18;;;;;;;8.83;7.93;;;3.60;99.90;;;;;;4974601;28;20189;-79
2022/01/19 07:40:44;;;;;;;7.80;7.00;;;3.60;99.90;;;;;;4974128;28;20183;-80
2022/01/19 07:43:09;;;;;;;8.40;7.10;;;3.60;99.90;;;;;;4974233;28;20277;-79
2022/01/19 07:45:35;;;;;;;9.37;8.47;;;3.60;99.90;;;;;;4973088;28;20572;-78
2022/01/19 07:48:01;;;;;;;10.70;8.13;;;3.60;99.90;;;;;;4974348;28;20217;-79
2022/01/19 07:50:26;;;;;;;10.50;8.50;;;3.70;99.90;;;;;;4974441;28;20416;-79
2022/01/19 07:52:52;;;;;;;11.17;9.07;;;3.60;99.90;;;;;;4974485;28;20292;-79
2022/01/19 07:55:18;;;;;;;9.33;7.87;;;3.70;99.90;;;;;;4975082;28;20190;-78
2022/01/19 07:57:48;;;;;;;12.40;9.50;;;3.70;99.90;;;;;;4974491;28;20219;-78
2022/01/19 08:00:14;;;;;;;13.25;9.02;;;3.70;99.90;;;;;;4972982;28;20665;-78
2022/01/19 08:02:40;;;;;;;10.35;8.77;;;3.70;99.90;;;;;;4973785;28;20201;-78
2022/01/19 08:05:07;;;;;;;12.30;8.00;;;3.70;99.90;;;;;;4973034;28;20303;-79
2022/01/19 08:07:33;;;;;;;11.13;8.73;;;3.80;99.90;;;;;;4974328;28;20175;-79
2022/01/19 08:09:59;;;;;;;10.98;9.25;;;3.80;99.90;;;;;;4974372;28;20545;-79
2022/01/19 08:12:26;;;;;;;14.10;9.25;;;3.70;99.90;;;;;;4973995;28;20201;-79
2022/01/19 08:14:51;;;;;;;29.77;18.15;;;3.80;99.90;;;;;;4974182;28;20181;-79
2022/01/19 08:17:17;;;;;;;16.20;11.20;;;3.70;99.90;;;;;;4974103;28;20593;-79
2022/01/19 08:19:42;;;;;;;11.10;9.60;;;3.80;99.90;;;;;;4972891;28;20180;-78
2022/01/19 08:22:08;;;;;;;10.10;8.40;;;3.70;99.90;;;;;;4972291;28;20200;-78
2022/01/19 08:24:34;;;;;;;12.93;9.60;;;3.70;99.90;;;;;;4974060;28;20654;-80
2022/01/19 08:26:59;;;;;;;9.70;8.40;;;3.80;99.90;;;;;;4972976;28;20653;-80
2022/01/19 08:29:25;;;;;;;83.67;57.53;;;3.80;99.90;;;;;;4974143;28;20192;-78
2022/01/19 08:31:50;;;;;;;13.47;9.70;;;3.80;99.90;;;;;;4973599;28;20327;-78
2022/01/19 08:34:17;;;;;;;10.47;9.33;;;3.80;99.90;;;;;;4974037;28;20192;-79
2022/01/19 08:36:44;;;;;;;10.88;8.60;;;3.80;99.90;;;;;;4974029;28;20177;-78
2022/01/19 08:39:09;;;;;;;10.55;9.43;;;3.70;99.90;;;;;;4973796;28;20524;-78
2022/01/19 08:41:36;;;;;;;15.77;10.10;;;3.80;99.90;;;;;;4973612;28;20220;-78
2022/01/19 08:44:02;;;;;;;9.50;7.93;;;3.80;99.90;;;;;;4973736;28;20192;-78
2022/01/19 08:46:28;;;;;;;13.43;10.02;;;3.90;99.90;;;;;;4974437;28;20237;-79
2022/01/19 08:48:53;;;;;;;11.40;8.48;;;3.90;99.90;;;;;;4977468;28;20176;-77
2022/01/19 08:51:19;;;;;;;11.07;7.97;;;3.90;99.90;;;;;;4975607;28;20201;-78
2022/01/19 08:53:44;;;;;;;20.40;10.50;;;3.90;99.90;;;;;;4977404;28;20175;-78
2022/01/19 08:56:10;;;;;;;14.73;10.13;;;4.00;99.90;;;;;;4977297;28;20227;-78
2022/01/19 08:58:36;;;;;;;12.63;8.37;;;4.00;99.90;;;;;;4975943;28;20231;-78
2022/01/19 09:01:01;;;;;;;10.77;8.90;;;4.00;99.90;;;;;;4976255;28;20188;-78
2022/01/19 09:03:28;;;;;;;13.17;9.93;;;3.90;99.90;;;;;;4976563;28;20271;-79
2022/01/19 09:05:54;;;;;;;9.95;7.97;;;3.90;99.90;;;;;;4976932;28;20212;-77
2022/01/19 09:08:19;;;;;;;10.17;8.30;;;3.90;99.90;;;;;;4976900;28;20676;-78
2022/01/19 09:10:47;;;;;;;11.50;9.53;;;4.00;99.90;;;;;;4976657;28;20184;-78
2022/01/19 09:13:13;;;;;;;12.82;8.32;;;4.00;99.90;;;;;;4976658;28;20494;-79
2022/01/19 09:15:39;;;;;;;12.77;9.13;;;4.00;99.90;;;;;;4976691;28;20185;-78
2022/01/19 09:18:04;;;;;;;12.80;8.97;;;4.10;99.90;;;;;;4975954;28;20185;-79
2022/01/19 09:20:30;;;;;;;11.23;8.50;;;4.10;99.90;;;;;;4977007;28;20184;-79
2022/01/19 09:22:56;;;;;;;13.90;9.33;;;4.00;99.90;;;;;;4976518;28;20539;-78
2022/01/19 09:25:21;;;;;;;11.50;9.07;;;4.00;99.90;;;;;;4976729;28;20203;-78
2022/01/19 09:27:47;;;;;;;11.53;9.13;;;4.10;99.90;;;;;;4976498;28;20196;-79
2022/01/19 09:30:18;;;;;;;11.37;9.30;;;4.10;99.90;;;;;;4976674;28;20212;-79
2022/01/19 09:32:49;;;;;;;15.68;8.73;;;4.10;99.90;;;;;;4974937;28;20192;-78
2022/01/19 09:35:23;;;;;;;14.63;9.23;;;4.10;99.90;;;;;;4976413;28;20168;-78
2022/01/19 09:37:49;;;;;;;9.65;8.35;;;4.10;99.90;;;;;;4976452;28;20259;-79
2022/01/19 09:40:14;;;;;;;12.53;8.10;;;4.10;99.90;;;;;;4976288;28;20251;-78
2022/01/19 09:42:40;;;;;;;12.37;9.13;;;4.10;99.90;;;;;;4975866;28;20204;-78
2022/01/19 09:45:06;;;;;;;9.43;8.47;;;4.10;99.90;;;;;;4976252;28;20615;-78
2022/01/19 09:47:31;;;;;;;11.00;8.43;;;4.20;99.90;;;;;;4976421;28;20184;-78
2022/01/19 09:49:57;;;;;;;11.20;9.93;;;4.20;99.90;;;;;;4976132;28;20315;-78
2022/01/19 09:52:22;;;;;;;9.87;8.70;;;4.20;99.90;;;;;;4975609;28;20239;-77
2022/01/19 09:54:48;;;;;;;9.67;8.67;;;4.20;99.90;;;;;;4975939;28;20181;-79
2022/01/19 09:57:14;;;;;;;11.50;8.37;;;4.20;99.90;;;;;;4975784;28;20741;-79
2022/01/19 09:59:39;;;;;;;11.67;8.50;;;4.20;99.90;;;;;;4976070;28;20199;-78
2022/01/19 10:02:08;;;;;;;12.87;9.30;;;4.20;99.90;;;;;;4975523;28;20239;-78
2022/01/19 10:04:42;;;;;;;23.15;9.75;;;4.30;99.90;;;;;;4974608;28;20214;-77
2022/01/19 10:07:19;;;;;;;10.13;8.55;;;4.20;99.90;;;;;;4976315;28;20208;-78
2022/01/19 10:09:50;;;;;;;11.32;9.35;;;4.20;99.90;;;;;;4976064;28;20507;-77
2022/01/19 10:18:17;;;;;;;10.98;9.38;;;4.20;99.90;;;;;;4975820;28;20184;-78
2022/01/19 10:20:45;;;;;;;17.95;10.38;;;4.20;99.90;;;;;;4975394;28;20185;-79
2022/01/19 10:23:33;;;;;;;14.32;10.93;;;4.30;99.90;;;;;;4975512;28;20247;-78
2022/01/19 10:26:00;;;;;;;13.63;9.93;;;4.30;99.90;;;;;;4974321;28;20204;-79
2022/01/19 10:28:26;;;;;;;12.95;10.75;;;4.30;99.90;;;;;;4975378;28;20224;-78
2022/01/19 10:30:52;;;;;;;13.70;10.75;;;4.50;99.90;;;;;;4975172;28;20180;-79
2022/01/19 10:33:19;;;;;;;13.63;10.53;;;4.50;99.90;;;;;;4975351;28;20215;-78
2022/01/19 10:35:48;;;;;;;13.18;10.45;;;4.50;99.90;;;;;;4975367;28;20447;-78
2022/01/19 10:38:24;;;;;;;11.20;10.00;;;4.40;99.90;;;;;;4975286;28;20268;-78
2022/01/19 10:40:56;;;;;;;12.75;10.55;;;4.40;99.90;;;;;;4974903;28;20184;-78
2022/01/19 10:43:31;;;;;;;12.35;11.07;;;4.50;99.90;;;;;;4975144;28;20177;-78
2022/01/19 10:45:59;;;;;;;15.00;10.23;;;4.60;99.90;;;;;;4975168;28;20315;-78
2022/01/19 10:48:34;;;;;;;11.25;10.05;;;4.50;99.90;;;;;;4975101;28;20179;-78
2022/01/19 10:51:28;;;;;;;12.77;10.48;;;4.60;99.90;;;;;;4974523;28;20177;-81
2022/01/19 10:54:19;;;;;;;13.43;10.50;;;4.60;99.90;;;;;;4974338;28;20680;-80
2022/01/19 10:56:48;;;;;;;12.57;9.43;;;4.70;99.90;;;;;;4975364;28;20176;-80
2022/01/19 10:59:17;;;;;;;14.73;12.13;;;4.70;99.90;;;;;;4975129;28;20220;-79
2022/01/19 11:01:49;;;;;;;11.82;10.43;;;4.80;99.90;;;;;;4974553;28;20193;-79
2022/01/19 11:04:33;;;;;;;12.98;11.32;;;4.70;99.90;;;;;;4973892;28;20193;-79
2022/01/19 11:07:02;;;;;;;14.52;11.40;;;4.70;99.90;;;;;;4973818;28;20181;-79
2022/01/19 11:09:29;;;;;;;11.68;10.40;;;4.80;99.90;;;;;;4974295;28;20173;-80
2022/01/19 11:12:04;;;;;;;15.02;12.75;;;4.70;99.90;;;;;;4974454;28;20271;-80
2022/01/19 11:14:30;;;;;;;14.95;13.10;;;4.80;99.90;;;;;;4974886;28;20528;-80
2022/01/19 11:16:56;;;;;;;12.52;10.95;;;4.90;99.90;;;;;;4973259;28;20268;-80
2022/01/19 11:19:23;;;;;;;12.87;10.83;;;4.90;99.90;;;;;;4974597;28;20609;-78
2022/01/19 11:22:17;;;;;;;13.38;11.30;;;4.80;99.90;;;;;;4974525;28;20438;-80
2022/01/19 11:24:52;;;;;;;15.23;10.95;;;4.80;99.90;;;;;;4974696;28;20606;-79
2022/01/19 11:27:18;;;;;;;12.98;10.98;;;4.70;99.90;;;;;;4974391;28;20276;-80
2022/01/19 11:29:44;;;;;;;11.95;10.65;;;4.80;99.90;;;;;;4974689;28;20173;-77
2022/01/19 11:32:20;;;;;;;12.57;10.63;;;4.70;99.90;;;;;;4974214;28;20227;-80
2022/01/19 11:34:53;;;;;;;13.73;10.75;;;4.70;99.90;;;;;;4973837;28;20924;-80
2022/01/19 11:37:40;;;;;;;13.80;11.15;;;4.80;99.90;;;;;;4974608;28;20188;-80
2022/01/19 11:40:06;;;;;;;13.18;10.52;;;4.70;99.90;;;;;;4974373;28;20180;-81
2022/01/19 11:42:32;;;;;;;14.00;10.97;;;4.70;99.90;;;;;;4974106;28;20193;-79
2022/01/19 11:44:58;;;;;;;11.43;10.20;;;4.70;99.90;;;;;;4974316;28;20204;-77
2022/01/19 11:47:29;;;;;;;11.73;9.93;;;4.70;99.90;;;;;;4974171;28;20444;-81
2022/01/19 11:49:56;;;;;;;10.77;9.00;;;4.80;99.90;;;;;;4974215;28;20173;-80
2022/01/19 11:52:43;;;;;;;13.55;10.32;;;4.80;99.90;;;;;;4973792;28;20189;-78
2022/01/19 11:55:22;;;;;;;15.73;10.48;;;4.70;99.90;;;;;;4972262;28;20189;-79
2022/01/19 11:58:09;;;;;;;11.77;9.25;;;4.70;99.90;;;;;;4974058;28;20256;-79
2022/01/19 12:00:35;;;;;;;11.95;9.75;;;4.70;99.90;;;;;;4974286;28;20187;-80
2022/01/19 12:03:35;;;;;;;13.10;10.45;;;4.80;99.90;;;;;;4973982;28;20200;-81
2022/01/19 12:06:01;;;;;;;13.27;10.98;;;4.80;99.90;;;;;;4973819;28;20212;-81
2022/01/19 12:08:34;;;;;;;13.83;10.20;;;4.70;99.90;;;;;;4974241;28;20695;-80
2022/01/19 12:11:16;;;;;;;14.32;11.38;;;4.80;99.90;;;;;;4973963;28;20495;-81
2022/01/19 12:18:47;;;;;;;13.52;10.23;;;4.70;99.90;;;;;;4974270;28;20208;-81
2022/01/19 12:21:38;;;;;;;13.80;10.93;;;4.60;99.90;;;;;;4975651;28;20204;-80
2022/01/19 12:24:25;;;;;;;15.27;11.40;;;4.60;99.90;;;;;;4975124;28;20255;-80
2022/01/19 12:26:55;;;;;;;14.20;11.20;;;4.70;99.90;;;;;;4977795;28;20199;-79
2022/01/19 12:29:33;;;;;;;14.57;11.68;;;4.80;99.90;;;;;;4976461;28;20177;-80
2022/01/19 12:32:00;;;;;;;15.68;11.68;;;4.80;99.90;;;;;;4977194;28;20584;-79
2022/01/19 12:34:26;;;;;;;13.68;11.43;;;4.70;99.90;;;;;;4977615;28;20227;-81
2022/01/19 12:36:58;;;;;;;14.82;12.15;;;4.70;99.90;;;;;;4977799;28;20235;-79
2022/01/19 12:39:26;;;;;;;16.75;12.10;;;4.80;99.90;;;;;;4977667;28;20189;-81
2022/01/19 12:42:00;;;;;;;15.02;11.63;;;4.70;99.90;;;;;;4977057;28;20193;-79
2022/01/19 12:44:35;;;;;;;19.20;13.38;;;4.60;99.90;;;;;;4977431;28;20200;-81
2022/01/19 12:47:25;;;;;;;19.65;12.60;;;4.70;99.90;;;;;;4977437;28;20173;-80
2022/01/19 12:50:01;;;;;;;13.85;11.38;;;4.70;99.90;;;;;;4977237;28;20204;-80
2022/01/19 12:52:30;;;;;;;15.50;11.85;;;4.70;99.90;;;;;;4976781;28;20200;-81
2022/01/19 12:54:58;;;;;;;17.13;12.13;;;4.80;99.90;;;;;;4977391;28;20177;-80
2022/01/19 12:57:23;;;;;;;15.48;11.60;;;4.70;99.90;;;;;;4977196;28;20674;-80
2022/01/19 12:59:54;;;;;;;22.83;13.50;;;4.70;99.90;;;;;;4977157;28;20196;-80
2022/01/19 13:02:28;;;;;;;17.08;13.55;;;4.70;99.90;;;;;;4976757;28;20614;-79
2022/01/19 13:05:13;;;;;;;20.20;13.90;;;4.80;99.90;;;;;;4977286;28;20567;-80
2022/01/19 13:07:42;;;;;;;20.88;14.55;;;4.80;99.90;;;;;;4977219;28;20635;-79
2022/01/19 13:12:50;;;;;;;22.40;15.02;;;4.80;99.90;;;;;;4976654;28;20205;-79
2022/01/19 13:15:17;;;;;;;19.85;13.40;;;4.70;99.90;;;;;;4975751;28;20235;-80
2022/01/19 13:17:48;;;;;;;21.70;12.85;;;4.80;99.90;;;;;;4976786;28;20200;-81
2022/01/19 13:20:21;;;;;;;17.50;11.60;;;4.80;99.90;;;;;;4976550;28;20236;-80
2022/01/19 13:22:51;;;;;;;23.17;12.10;;;4.80;99.90;;;;;;4975032;28;20208;-81
2022/01/19 13:25:23;;;;;;;23.65;14.18;;;4.70;99.90;;;;;;4976701;28;20211;-80
2022/01/19 13:27:50;;;;;;;18.20;12.73;;;4.70;99.90;;;;;;4976652;28;20645;-79
2022/01/19 13:30:16;;;;;;;17.48;12.52;;;4.60;99.90;;;;;;4976583;28;20235;-81
2022/01/19 13:32:43;;;;;;;22.55;13.07;;;4.70;99.90;;;;;;4975627;28;20259;-79
2022/01/19 13:35:11;;;;;;;20.65;13.20;;;4.80;99.90;;;;;;4976620;28;20196;-80
2022/01/19 13:37:41;;;;;;;18.10;12.43;;;4.80;99.90;;;;;;4976555;28;20211;-80
2022/01/19 13:40:12;;;;;;;22.40;14.73;;;4.80;99.90;;;;;;4976365;28;20192;-79
2022/01/19 13:42:48;;;;;;;17.45;12.00;;;4.70;99.90;;;;;;4975950;28;20193;-79
2022/01/19 13:45:38;;;;;;;22.55;11.68;;;4.70;99.90;;;;;;4976176;28;20658;-79
2022/01/19 13:50:43;;;;;;;20.40;12.75;;;4.70;99.90;;;;;;4976096;28;20633;-79
2022/01/19 13:53:10;;;;;;;17.88;12.95;;;4.70;99.90;;;;;;4975966;28;20200;-79
2022/01/19 13:55:36;;;;;;;17.88;12.10;;;4.60;99.90;;;;;;4974718;28;20180;-80
2022/01/19 13:58:13;;;;;;;23.00;13.70;;;4.70;99.90;;;;;;4974793;28;20184;-80
2022/01/19 14:00:57;;;;;;;17.48;13.32;;;4.70;99.90;;;;;;4975785;28;20587;-79
2022/01/19 14:03:24;;;;;;;30.75;14.23;;;4.70;99.90;;;;;;4975909;28;20546;-80
2022/01/19 14:05:52;;;;;;;19.02;12.75;;;4.70;99.90;;;;;;4974515;28;20224;-79
2022/01/19 14:08:32;;;;;;;18.48;13.07;;;4.80;99.90;;;;;;4975949;28;20708;-80
2022/01/19 14:10:58;;;;;;;21.13;14.95;;;4.60;99.90;;;;;;4975317;28;20177;-80
2022/01/19 14:13:33;;;;;;;23.17;15.15;;;4.60;99.90;;;;;;4975731;28;20184;-80
2022/01/19 14:16:22;;;;;;;18.33;12.50;;;4.70;99.90;;;;;;4975952;28;20179;-79
2022/01/19 14:19:09;;;;;;;19.00;13.95;;;4.60;99.90;;;;;;4975901;28;20188;-80
2022/01/19 14:22:12;;;;;;;21.95;14.45;;;4.50;99.90;;;;;;4975485;28;20191;-80
2022/01/19 14:24:41;;;;;;;24.05;14.73;;;4.60;99.90;;;;;;4975550;28;20231;-80
2022/01/19 14:27:11;;;;;;;22.08;13.43;;;4.50;99.90;;;;;;4975434;28;20276;-80
2022/01/19 14:29:52;;;;;;;23.92;14.27;;;4.50;99.90;;;;;;4975440;28;20173;-81
2022/01/19 14:32:18;;;;;;;21.83;14.88;;;4.40;99.90;;;;;;4973964;28;20581;-81
2022/01/19 14:34:44;;;;;;;21.50;14.87;;;4.40;99.90;;;;;;4975364;28;20220;-80